createdAt,value
2023-05-22T00:00:52.040Z,44.8220
2023-05-22T00:01:54.274Z,44.8280
2023-05-22T00:02:56.497Z,44.8100
2023-05-22T00:03:58.598Z,44.8040
2023-05-22T00:05:00.910Z,44.8280
2023-05-22T00:06:03.005Z,44.8340
2023-05-22T00:07:05.183Z,44.8040
2023-05-22T00:08:07.353Z,44.8160
2023-05-22T00:09:09.530Z,44.8220
2023-05-22T00:10:11.742Z,44.7980
2023-05-22T00:11:13.924Z,44.8100
2023-05-22T00:12:16.071Z,44.8160
2023-05-22T00:13:18.287Z,44.8100
2023-05-22T00:14:20.369Z,44.8040
2023-05-22T00:15:22.567Z,44.8220
2023-05-22T00:16:24.698Z,44.8160
2023-05-22T00:17:26.925Z,44.8040
2023-05-22T00:18:29.013Z,44.7980
2023-05-22T00:19:31.336Z,44.8010
2023-05-22T00:20:33.366Z,44.8200
2023-05-22T00:21:35.504Z,44.8260
2023-05-22T00:22:37.686Z,44.8200
2023-05-22T00:23:39.785Z,44.8060
2023-05-22T00:24:39.791Z,44.8380
2023-05-22T00:25:41.968Z,44.8200
2023-05-22T00:26:44.137Z,44.8260
2023-05-22T00:27:46.290Z,44.8140
2023-05-22T00:28:48.454Z,44.8140
2023-05-22T00:29:50.620Z,44.7880
2023-05-22T00:30:52.775Z,44.7700
2023-05-22T00:31:54.895Z,44.7880
2023-05-22T00:32:57.094Z,44.8010
2023-05-22T00:33:59.289Z,44.8040
2023-05-22T00:35:01.441Z,44.8220
2023-05-22T00:36:03.736Z,44.8040
2023-05-22T00:37:05.796Z,44.8040
2023-05-22T00:38:07.998Z,44.7860
2023-05-22T00:39:10.185Z,44.8350
2023-05-22T00:40:12.391Z,44.7980
2023-05-22T00:41:14.607Z,44.7980
2023-05-22T00:42:16.841Z,44.7860
2023-05-22T00:43:18.966Z,44.7860
2023-05-22T00:44:21.187Z,44.7860
2023-05-22T00:45:23.400Z,44.8040
2023-05-22T00:46:25.637Z,44.7860
2023-05-22T00:47:27.802Z,44.7980
2023-05-22T00:48:27.774Z,44.7860
2023-05-22T00:49:29.970Z,44.7980
2023-05-22T00:50:32.154Z,44.8040
2023-05-22T00:51:34.393Z,44.7920
2023-05-22T00:52:36.541Z,44.7980
2023-05-22T00:53:38.747Z,44.7800
2023-05-22T00:54:40.942Z,44.7920
2023-05-22T00:55:43.076Z,44.8040
2023-05-22T00:56:45.201Z,44.7990
2023-05-22T00:57:47.330Z,44.8040
2023-05-22T00:58:49.542Z,44.8040
2023-05-22T00:59:51.724Z,44.8090
2023-05-22T01:00:53.941Z,44.8040
2023-05-22T01:01:56.303Z,44.8010
2023-05-22T01:02:58.421Z,44.8090
2023-05-22T01:04:00.628Z,44.8210
2023-05-22T01:05:02.806Z,44.8210
2023-05-22T01:06:02.855Z,44.8270
2023-05-22T01:07:05.093Z,44.8140
2023-05-22T01:08:07.276Z,44.8010
2023-05-22T01:09:09.485Z,44.8140
2023-05-22T01:10:11.686Z,44.8390
2023-05-22T01:11:13.898Z,44.8090
2023-05-22T01:12:16.141Z,44.8210
2023-05-22T01:13:18.330Z,44.8210
2023-05-22T01:14:20.451Z,44.8010
2023-05-22T01:15:22.634Z,44.8090
2023-05-22T01:16:24.833Z,44.7890
2023-05-22T01:17:27.030Z,44.7950
2023-05-22T01:18:29.128Z,44.8010
2023-05-22T01:19:31.403Z,44.7890
2023-05-22T01:20:33.496Z,44.8010
2023-05-22T01:21:35.663Z,44.8090
2023-05-22T01:22:37.882Z,44.8030
2023-05-22T01:23:39.996Z,44.7890
2023-05-22T01:24:42.160Z,44.7950
2023-05-22T01:25:44.326Z,44.7950
2023-05-22T01:26:46.493Z,44.8030
2023-05-22T01:27:48.788Z,44.7890
2023-05-22T01:28:50.875Z,44.7950
2023-05-22T01:29:53.040Z,44.7770
2023-05-22T01:30:53.116Z,44.7710
2023-05-22T01:31:55.360Z,44.7830
2023-05-22T01:32:57.707Z,44.7770
2023-05-22T01:33:59.872Z,44.7550
2023-05-22T01:35:02.048Z,44.7550
2023-05-22T01:36:04.248Z,44.7870
2023-05-22T01:37:06.465Z,44.7790
2023-05-22T01:38:08.701Z,44.8090
2023-05-22T01:39:10.843Z,44.8030
2023-05-22T01:40:13.046Z,44.7850
2023-05-22T01:41:15.216Z,44.7970
2023-05-22T01:42:17.419Z,44.8150
2023-05-22T01:43:19.734Z,44.8030
2023-05-22T01:44:21.991Z,44.7790
2023-05-22T01:45:21.962Z,44.7790
2023-05-22T01:46:24.348Z,44.7850
2023-05-22T01:47:26.594Z,44.7870
2023-05-22T01:48:28.800Z,44.7930
2023-05-22T01:49:30.999Z,44.8050
2023-05-22T01:50:33.223Z,44.8130
2023-05-22T01:51:35.419Z,44.8130
2023-05-22T01:52:37.638Z,44.7930
2023-05-22T01:53:39.813Z,44.7870
2023-05-22T01:54:41.960Z,44.7870
2023-05-22T01:55:44.126Z,44.7990
2023-05-22T01:56:46.340Z,44.7870
2023-05-22T01:57:46.383Z,44.7690
2023-05-22T01:58:48.632Z,44.7630
2023-05-22T01:59:50.808Z,44.7750
2023-05-22T02:00:52.946Z,44.7510
2023-05-22T02:01:55.070Z,44.7570
2023-05-22T02:02:57.385Z,44.7630
2023-05-22T02:03:59.505Z,44.7570
2023-05-22T02:05:01.703Z,44.7810
2023-05-22T02:06:03.914Z,44.7790
2023-05-22T02:07:06.149Z,44.7660
2023-05-22T02:08:08.379Z,44.7540
2023-05-22T02:09:10.728Z,44.7790
2023-05-22T02:10:12.806Z,44.7790
2023-05-22T02:11:15.054Z,44.7730
2023-05-22T02:12:15.121Z,44.7410
2023-05-22T02:13:17.376Z,44.7540
2023-05-22T02:14:19.636Z,44.7660
2023-05-22T02:15:21.883Z,44.7540
2023-05-22T02:16:24.180Z,44.7480
2023-05-22T02:17:26.370Z,44.7660
2023-05-22T02:18:28.513Z,44.7790
2023-05-22T02:19:30.860Z,44.7480
2023-05-22T02:20:32.857Z,44.7480
2023-05-22T02:21:35.034Z,44.7660
2023-05-22T02:22:37.184Z,44.7660
2023-05-22T02:23:39.372Z,44.7600
2023-05-22T02:24:41.517Z,44.7730
2023-05-22T02:25:43.695Z,44.7510
2023-05-22T02:26:46.867Z,44.7410
2023-05-22T02:27:48.075Z,44.7580
2023-05-22T02:28:48.121Z,44.7510
2023-05-22T02:29:50.314Z,44.7260
2023-05-22T02:30:52.566Z,44.7200
2023-05-22T02:31:54.694Z,44.7140
2023-05-22T02:32:56.862Z,44.7260
2023-05-22T02:33:59.035Z,44.7260
2023-05-22T02:35:01.266Z,44.7200
2023-05-22T02:36:03.419Z,44.7200
2023-05-22T02:37:05.597Z,44.6980
2023-05-22T02:38:07.787Z,44.7060
2023-05-22T02:39:09.953Z,44.7180
2023-05-22T02:40:12.246Z,44.6960
2023-05-22T02:41:14.294Z,44.7260
2023-05-22T02:42:16.490Z,44.7200
2023-05-22T02:43:18.678Z,44.7260
2023-05-22T02:44:20.864Z,44.7200
2023-05-22T02:45:23.081Z,44.7020
2023-05-22T02:47:42.516Z,44.7760
2023-05-22T02:48:45.573Z,44.7640
2023-05-22T02:50:50.888Z,44.7400
2023-05-22T02:51:52.928Z,44.7200
2023-05-22T02:52:55.021Z,44.7340
2023-05-22T02:53:57.163Z,44.7060
2023-05-22T02:54:58.143Z,44.7120
2023-05-22T02:55:59.284Z,44.7140
2023-05-22T02:57:01.396Z,44.7200
2023-05-22T02:58:03.533Z,44.7020
2023-05-22T02:59:05.669Z,44.7020
2023-05-22T03:00:07.829Z,44.7080
2023-05-22T03:01:09.978Z,44.6900
2023-05-22T03:02:12.140Z,44.6960
2023-05-22T03:03:14.361Z,44.7140
2023-05-22T03:04:16.410Z,44.7080
2023-05-22T03:05:18.624Z,44.6960
2023-05-22T03:06:20.949Z,44.7200
2023-05-22T03:07:22.976Z,44.7180
2023-05-22T03:08:25.144Z,44.7060
2023-05-22T03:09:27.285Z,44.6780
2023-05-22T03:10:29.427Z,44.7000
2023-05-22T03:11:31.617Z,44.7000
2023-05-22T03:12:33.654Z,44.7000
2023-05-22T03:13:35.739Z,44.6940
2023-05-22T03:14:37.881Z,44.6940
2023-05-22T03:15:40.034Z,44.7060
2023-05-22T03:16:42.391Z,44.7120
2023-05-22T03:17:44.382Z,44.7440
2023-05-22T03:18:46.531Z,44.7360
2023-05-22T03:19:48.593Z,44.7560
2023-05-22T03:20:50.725Z,44.7620
2023-05-22T03:21:52.873Z,44.7440
2023-05-22T03:22:55.014Z,44.7180
2023-05-22T03:23:57.150Z,44.7360
2023-05-22T03:24:59.313Z,44.7380
2023-05-22T03:26:01.467Z,44.7380
2023-05-22T03:27:03.619Z,44.7240
2023-05-22T03:28:05.715Z,44.7380
2023-05-22T03:29:07.934Z,44.7440
2023-05-22T03:30:09.984Z,44.7380
2023-05-22T03:31:12.117Z,44.7380
2023-05-22T03:32:12.163Z,44.7620
2023-05-22T03:33:14.276Z,44.7800
2023-05-22T03:34:16.385Z,44.7680
2023-05-22T03:35:18.490Z,44.7900
2023-05-22T03:36:20.622Z,44.8140
2023-05-22T03:37:22.798Z,44.8260
2023-05-22T03:38:22.738Z,44.8580
2023-05-22T03:39:24.862Z,44.8940
2023-05-22T03:40:27.010Z,44.8820
2023-05-22T03:41:29.173Z,44.8700
2023-05-22T03:42:31.480Z,44.8640
2023-05-22T03:43:33.515Z,44.8820
2023-05-22T03:44:35.666Z,44.8980
2023-05-22T03:45:37.869Z,44.9200
2023-05-22T03:46:39.966Z,44.9220
2023-05-22T03:47:42.174Z,44.9320
2023-05-22T03:48:44.275Z,44.9540
2023-05-22T03:49:46.440Z,44.9600
2023-05-22T03:50:46.410Z,44.9820
2023-05-22T03:51:48.566Z,44.9760
2023-05-22T03:52:50.748Z,44.9820
2023-05-22T03:53:52.786Z,44.9760
2023-05-22T03:54:54.905Z,44.9760
2023-05-22T03:55:57.043Z,44.9820
2023-05-22T03:56:59.170Z,44.9660
2023-05-22T03:58:01.371Z,44.9560
2023-05-22T03:59:03.459Z,44.9760
2023-05-22T04:00:05.600Z,44.9880
2023-05-22T04:01:07.690Z,44.9900
2023-05-22T04:02:09.793Z,44.9560
2023-05-22T04:03:11.993Z,44.9200
2023-05-22T04:04:14.039Z,44.9560
2023-05-22T04:05:16.242Z,44.9420
2023-05-22T04:06:18.344Z,44.9480
2023-05-22T04:07:20.485Z,44.9620
2023-05-22T04:08:22.632Z,44.9760
2023-05-22T04:09:24.688Z,44.9760
2023-05-22T04:10:24.657Z,44.9760
2023-05-22T04:11:26.762Z,44.9960
2023-05-22T04:12:28.876Z,45.0240
2023-05-22T04:13:31.010Z,45.0560
2023-05-22T04:14:33.160Z,45.0640
2023-05-22T04:15:35.224Z,45.1020
2023-05-22T04:16:37.344Z,45.1140
2023-05-22T04:17:39.474Z,45.1520
2023-05-22T04:18:41.700Z,45.1820
2023-05-22T04:19:43.740Z,45.2200
2023-05-22T04:20:45.908Z,45.2820
2023-05-22T04:21:48.020Z,45.3310
2023-05-22T04:22:50.203Z,45.3710
2023-05-22T04:23:52.456Z,45.4310
2023-05-22T04:24:54.515Z,45.5130
2023-05-22T04:25:56.597Z,45.5330
2023-05-22T04:26:58.752Z,45.5450
2023-05-22T04:28:00.903Z,45.5750
2023-05-22T04:29:03.091Z,45.5750
2023-05-22T04:30:05.206Z,45.6130
2023-05-22T04:31:07.388Z,45.6250
2023-05-22T04:32:09.469Z,45.6310
2023-05-22T04:33:11.632Z,45.6810
2023-05-22T04:34:13.815Z,45.7180
2023-05-22T04:35:15.926Z,45.7180
2023-05-22T04:36:15.990Z,45.7430
2023-05-22T04:37:18.176Z,45.7620
2023-05-22T04:38:20.336Z,45.7920
2023-05-22T04:39:22.559Z,45.8080
2023-05-22T04:40:24.689Z,45.8260
2023-05-22T04:41:26.961Z,45.8260
2023-05-22T04:42:29.023Z,45.8460
2023-05-22T04:43:31.171Z,45.8460
2023-05-22T04:44:33.374Z,45.8760
2023-05-22T04:45:35.504Z,45.8700
2023-05-22T04:46:37.732Z,45.9080
2023-05-22T04:47:39.863Z,45.9080
2023-05-22T04:48:42.040Z,45.9080
2023-05-22T04:49:44.283Z,45.9200
2023-05-22T04:50:46.515Z,45.9200
2023-05-22T04:51:48.795Z,45.9380
2023-05-22T04:52:51.031Z,45.9460
2023-05-22T04:53:53.254Z,45.9570
2023-05-22T04:54:55.627Z,45.9770
2023-05-22T04:55:55.560Z,45.9630
2023-05-22T04:56:57.779Z,45.9690
2023-05-22T04:57:59.962Z,45.9840
2023-05-22T04:59:02.125Z,45.9780
2023-05-22T05:00:04.337Z,45.9960
2023-05-22T05:01:06.478Z,45.9720
2023-05-22T05:02:08.600Z,45.9780
2023-05-22T05:03:10.854Z,45.9720
2023-05-22T05:04:12.925Z,45.9840
2023-05-22T05:05:15.070Z,45.9900
2023-05-22T05:06:17.204Z,45.9780
2023-05-22T05:07:19.395Z,46.0080
2023-05-22T05:08:21.521Z,46.0140
2023-05-22T05:09:23.628Z,45.9800
2023-05-22T05:10:25.769Z,45.9840
2023-05-22T05:11:27.900Z,46.0000
2023-05-22T05:12:30.058Z,45.9780
2023-05-22T05:13:32.227Z,45.9960
2023-05-22T05:14:34.379Z,45.9860
2023-05-22T05:15:36.579Z,45.9920
2023-05-22T05:16:38.755Z,45.9800
2023-05-22T05:17:40.842Z,45.9620
2023-05-22T05:18:42.978Z,45.9680
2023-05-22T05:19:45.121Z,45.9620
2023-05-22T05:20:47.283Z,45.9560
2023-05-22T05:21:49.434Z,45.9240
2023-05-22T05:22:51.565Z,45.9240
2023-05-22T05:23:53.720Z,45.9500
2023-05-22T05:24:55.887Z,45.9180
2023-05-22T05:26:47.520Z,45.9340
2023-05-22T05:27:49.575Z,45.8470
2023-05-22T05:28:50.597Z,45.8190
2023-05-22T05:29:51.764Z,45.7950
2023-05-22T05:30:53.969Z,45.7950
2023-05-22T05:31:56.219Z,45.8070
2023-05-22T05:32:58.481Z,45.8010
2023-05-22T05:34:00.544Z,45.7690
2023-05-22T05:35:02.785Z,45.7410
2023-05-22T05:36:04.938Z,45.7530
2023-05-22T05:37:07.274Z,45.7530
2023-05-22T05:38:09.325Z,45.7290
2023-05-22T05:39:11.487Z,45.7470
2023-05-22T05:40:11.519Z,45.7530
2023-05-22T05:41:13.675Z,45.8190
2023-05-22T05:42:15.878Z,45.8250
2023-05-22T05:43:17.993Z,45.8130
2023-05-22T05:44:20.127Z,45.8350
2023-05-22T05:45:22.194Z,45.8470
2023-05-22T05:46:24.310Z,45.8290
2023-05-22T05:47:26.557Z,45.8130
2023-05-22T05:48:26.405Z,45.8430
2023-05-22T05:49:28.644Z,45.8210
2023-05-22T05:50:30.727Z,45.8030
2023-05-22T05:51:32.860Z,45.7850
2023-05-22T05:52:35.034Z,45.7590
2023-05-22T05:53:37.257Z,45.7930
2023-05-22T05:54:39.315Z,45.8350
2023-05-22T05:55:41.457Z,45.8210
2023-05-22T05:56:43.593Z,45.8470
2023-05-22T05:57:45.858Z,45.7850
2023-05-22T05:58:47.865Z,45.8090
2023-05-22T05:59:50.033Z,45.8090
2023-05-22T06:00:52.186Z,45.8490
2023-05-22T06:01:54.354Z,45.7810
2023-05-22T06:02:56.619Z,45.7570
2023-05-22T06:03:58.825Z,45.8070
2023-05-22T06:05:00.854Z,45.7750
2023-05-22T06:06:03.033Z,45.7930
2023-05-22T06:07:05.147Z,45.7930
2023-05-22T06:08:07.345Z,45.8250
2023-05-22T06:09:09.584Z,45.8210
2023-05-22T06:10:11.635Z,45.8350
2023-05-22T06:11:13.825Z,45.7250
2023-05-22T06:12:16.016Z,45.5060
2023-05-22T06:13:18.173Z,45.3170
2023-05-22T06:14:20.299Z,45.1890
2023-05-22T06:15:22.436Z,45.1470
2023-05-22T06:16:24.755Z,45.0520
2023-05-22T06:17:26.771Z,44.9620
2023-05-22T06:18:29.006Z,44.9260
2023-05-22T06:19:31.259Z,44.9040
2023-05-22T06:20:33.377Z,44.8800
2023-05-22T06:21:35.557Z,44.8580
2023-05-22T06:22:37.774Z,44.8980
2023-05-22T06:23:40.040Z,44.9130
2023-05-22T06:24:40.114Z,44.9330
2023-05-22T06:25:42.328Z,44.9590
2023-05-22T06:26:44.583Z,44.9590
2023-05-22T06:27:46.779Z,44.9950
2023-05-22T06:28:49.049Z,44.9870
2023-05-22T06:29:51.235Z,45.0210
2023-05-22T06:30:53.407Z,45.0230
2023-05-22T06:31:55.676Z,45.0230
2023-05-22T06:34:04.477Z,45.1070
2023-05-22T06:35:06.448Z,45.0890
2023-05-22T06:36:08.612Z,45.0790
2023-05-22T06:37:10.760Z,45.0290
2023-05-22T06:38:12.932Z,45.0110
2023-05-22T06:39:15.070Z,44.9930
2023-05-22T06:40:17.191Z,45.0110
2023-05-22T06:41:19.306Z,45.0290
2023-05-22T06:42:21.457Z,44.9890
2023-05-22T06:43:23.566Z,44.9470
2023-05-22T06:44:25.843Z,44.9210
2023-05-22T06:45:27.837Z,44.9330
2023-05-22T06:46:30.095Z,44.9390
2023-05-22T06:47:32.212Z,44.9390
2023-05-22T06:48:34.362Z,44.9710
2023-05-22T06:49:36.535Z,45.0070
2023-05-22T06:50:38.857Z,44.9990
2023-05-22T06:51:40.781Z,45.0170
2023-05-22T06:52:42.936Z,45.0900
2023-05-22T06:53:45.064Z,45.1660
2023-05-22T06:54:47.208Z,45.1320
2023-05-22T06:55:49.358Z,45.1780
2023-05-22T06:56:49.366Z,45.1720
2023-05-22T06:57:51.542Z,45.1580
2023-05-22T06:58:53.704Z,45.0980
2023-05-22T06:59:55.859Z,45.0630
2023-05-22T07:00:58.037Z,45.1100
2023-05-22T07:02:00.189Z,45.1040
2023-05-22T07:03:02.436Z,45.0530
2023-05-22T07:04:04.588Z,45.0790
2023-05-22T07:05:06.835Z,45.0650
2023-05-22T07:06:09.075Z,45.0970
2023-05-22T07:07:11.282Z,45.0630
2023-05-22T07:08:13.456Z,45.0510
2023-05-22T07:09:15.668Z,45.0470
2023-05-22T07:10:17.836Z,45.0470
2023-05-22T07:11:20.015Z,45.0030
2023-05-22T07:12:22.115Z,44.9850
2023-05-22T07:13:24.297Z,44.9970
2023-05-22T07:14:26.437Z,44.9950
2023-05-22T07:15:28.625Z,44.9690
2023-05-22T07:16:30.798Z,44.9850
2023-05-22T07:17:32.882Z,44.9470
2023-05-22T07:18:32.846Z,44.9730
2023-05-22T07:19:35.039Z,44.9790
2023-05-22T07:20:37.371Z,44.9510
2023-05-22T07:21:39.270Z,44.9190
2023-05-22T07:22:41.370Z,44.9190
2023-05-22T07:23:43.533Z,44.9130
2023-05-22T07:24:45.738Z,44.9450
2023-05-22T07:25:47.967Z,44.9380
2023-05-22T07:26:50.231Z,44.9070
2023-05-22T07:27:52.362Z,44.9440
2023-05-22T07:28:54.544Z,44.9500
2023-05-22T07:29:56.659Z,44.9380
2023-05-22T07:30:58.952Z,44.9620
2023-05-22T07:32:01.106Z,44.9920
2023-05-22T07:33:03.219Z,45.0050
2023-05-22T07:34:05.377Z,44.9560
2023-05-22T07:35:07.600Z,44.9500
2023-05-22T07:36:07.681Z,44.9190
2023-05-22T07:37:09.792Z,44.9030
2023-05-22T07:38:11.954Z,44.8600
2023-05-22T07:39:14.149Z,44.8910
2023-05-22T07:40:16.303Z,44.8910
2023-05-22T07:41:18.461Z,44.8540
2023-05-22T07:42:20.595Z,44.8290
2023-05-22T07:43:22.712Z,44.8910
2023-05-22T07:44:24.866Z,44.8290
2023-05-22T07:45:27.005Z,44.8720
2023-05-22T07:46:29.267Z,44.8780
2023-05-22T07:47:31.290Z,44.8540
2023-05-22T07:48:33.662Z,44.8960
2023-05-22T07:49:35.590Z,44.8720
2023-05-22T07:50:37.782Z,44.8680
2023-05-22T07:51:39.852Z,44.8620
2023-05-22T07:52:42.048Z,44.8680
2023-05-22T07:53:44.242Z,44.8740
2023-05-22T07:54:46.473Z,44.8220
2023-05-22T07:55:48.686Z,44.8540
2023-05-22T07:56:50.932Z,44.8340
2023-05-22T07:57:53.165Z,44.8340
2023-05-22T07:58:55.322Z,44.8480
2023-05-22T07:59:57.550Z,44.8320
2023-05-22T08:00:57.578Z,44.8680
2023-05-22T08:01:59.822Z,44.8880
2023-05-22T08:03:02.080Z,44.8720
2023-05-22T08:04:04.407Z,44.8660
2023-05-22T08:05:06.453Z,44.8600
2023-05-22T08:06:08.629Z,44.8660
2023-05-22T08:07:10.809Z,44.8400
2023-05-22T08:08:12.963Z,44.8040
2023-05-22T08:09:15.155Z,44.8480
2023-05-22T08:10:17.382Z,44.8480
2023-05-22T08:11:19.601Z,44.8160
2023-05-22T08:12:21.846Z,44.8100
2023-05-22T08:13:24.035Z,44.8220
2023-05-22T08:14:26.208Z,44.8340
2023-05-22T08:15:28.353Z,44.8100
2023-05-22T08:16:30.549Z,44.7980
2023-05-22T08:17:32.768Z,44.8160
2023-05-22T08:18:34.927Z,44.7800
2023-05-22T08:19:37.244Z,44.7980
2023-05-22T08:20:39.561Z,44.7600
2023-05-22T08:21:39.372Z,44.7300
2023-05-22T08:22:41.670Z,44.7240
2023-05-22T08:23:43.779Z,44.7300
2023-05-22T08:24:45.983Z,44.7420
2023-05-22T08:25:48.232Z,44.7420
2023-05-22T08:26:50.436Z,44.7240
2023-05-22T08:27:52.736Z,44.7420
2023-05-22T08:28:54.805Z,44.7300
2023-05-22T08:29:56.941Z,44.7000
2023-05-22T08:30:59.117Z,44.6820
2023-05-22T08:32:01.461Z,44.6700
2023-05-22T08:33:03.612Z,44.6300
2023-05-22T08:34:05.764Z,44.6460
2023-05-22T08:35:07.915Z,44.6500
2023-05-22T08:36:10.087Z,44.6560
2023-05-22T08:37:12.293Z,44.6980
2023-05-22T08:38:14.550Z,44.6740
2023-05-22T08:39:16.739Z,44.6800
2023-05-22T08:40:18.955Z,44.6860
2023-05-22T08:41:19.010Z,44.6500
2023-05-22T08:42:21.218Z,44.6320
2023-05-22T08:43:23.462Z,44.6400
2023-05-22T08:44:25.646Z,44.6980
2023-05-22T08:45:27.766Z,44.7080
2023-05-22T08:46:30.078Z,44.7560
2023-05-22T08:47:32.075Z,44.7280
2023-05-22T08:48:34.255Z,44.7080
2023-05-22T08:49:36.550Z,44.6980
2023-05-22T08:50:38.919Z,44.7220
2023-05-22T08:51:40.721Z,44.7420
2023-05-22T08:52:42.893Z,44.7600
2023-05-22T08:53:45.105Z,44.7260
2023-05-22T08:54:47.231Z,44.7240
2023-05-22T08:55:49.395Z,44.7420
2023-05-22T08:56:56.748Z,44.7540
2023-05-22T08:57:53.725Z,44.8040
2023-05-22T08:58:55.927Z,44.7540
2023-05-22T08:59:58.092Z,44.7420
2023-05-22T09:01:00.307Z,44.7300
2023-05-22T09:02:03.824Z,44.7140
2023-05-22T09:03:04.588Z,44.7780
2023-05-22T09:04:06.820Z,44.7820
2023-05-22T09:05:08.833Z,44.7760
2023-05-22T09:06:10.974Z,44.7820
2023-05-22T09:07:13.141Z,44.7820
2023-05-22T09:08:20.327Z,44.7980
2023-05-22T09:09:17.488Z,44.8280
2023-05-22T09:10:19.606Z,44.7760
2023-05-22T09:11:21.737Z,44.7940
2023-05-22T09:12:23.868Z,44.8400
2023-05-22T09:13:26.031Z,44.8180
2023-05-22T09:14:28.208Z,44.8120
2023-05-22T09:15:30.485Z,44.7820
2023-05-22T09:16:32.506Z,44.7880
2023-05-22T09:17:34.739Z,44.7820
2023-05-22T09:18:34.674Z,44.8160
2023-05-22T09:19:36.905Z,44.8240
2023-05-22T09:20:39.380Z,44.8500
2023-05-22T09:21:41.191Z,44.8300
2023-05-22T09:22:43.367Z,44.8120
2023-05-22T09:23:45.494Z,44.7760
2023-05-22T09:24:47.672Z,44.7880
2023-05-22T09:25:49.828Z,44.7620
2023-05-22T09:26:51.989Z,44.7620
2023-05-22T09:27:54.149Z,44.7140
2023-05-22T09:28:56.318Z,44.7680
2023-05-22T09:29:58.522Z,44.7440
2023-05-22T09:31:03.803Z,44.7940
2023-05-22T09:32:02.801Z,44.8160
2023-05-22T09:33:05.030Z,44.7880
2023-05-22T09:34:07.055Z,44.7900
2023-05-22T09:35:09.311Z,44.8020
2023-05-22T09:36:11.344Z,44.7660
2023-05-22T09:37:13.514Z,44.8340
2023-05-22T09:38:15.672Z,44.8100
2023-05-22T09:39:17.846Z,44.7420
2023-05-22T09:40:20.054Z,44.7280
2023-05-22T09:41:22.228Z,44.7660
2023-05-22T09:42:24.377Z,44.7340
2023-05-22T09:43:26.559Z,44.7220
2023-05-22T09:44:28.732Z,44.7600
2023-05-22T09:45:30.919Z,44.7600
2023-05-22T09:46:33.158Z,44.7540
2023-05-22T09:47:35.259Z,44.7600
2023-05-22T09:48:37.337Z,44.7260
2023-05-22T09:49:39.424Z,44.6520
2023-05-22T09:50:41.593Z,44.7080
2023-05-22T09:51:43.668Z,44.6740
2023-05-22T09:52:45.838Z,44.6700
2023-05-22T09:53:48.016Z,44.6820
2023-05-22T09:54:50.164Z,44.6200
2023-05-22T09:55:52.442Z,44.6700
2023-05-22T09:56:52.296Z,44.6700
2023-05-22T09:57:54.452Z,44.6580
2023-05-22T09:58:56.606Z,44.7000
2023-05-22T09:59:58.776Z,44.6640
2023-05-22T10:01:00.955Z,44.6140
2023-05-22T10:02:03.331Z,44.6400
2023-05-22T10:03:05.332Z,44.6980
2023-05-22T10:04:07.444Z,44.6740
2023-05-22T10:05:09.468Z,44.6940
2023-05-22T10:06:11.529Z,44.6520
2023-05-22T10:07:13.597Z,44.7100
2023-05-22T10:08:15.723Z,44.6760
2023-05-22T10:09:19.284Z,44.7100
2023-05-22T10:10:20.008Z,44.6480
2023-05-22T10:11:22.240Z,44.6360
2023-05-22T10:12:24.345Z,44.6800
2023-05-22T10:13:26.542Z,44.6800
2023-05-22T10:14:29.654Z,44.6920
2023-05-22T10:15:30.935Z,44.7200
2023-05-22T10:16:33.189Z,44.7440
2023-05-22T10:17:35.469Z,44.7340
2023-05-22T10:18:37.524Z,44.7040
2023-05-22T10:19:39.659Z,44.7340
2023-05-22T10:20:39.954Z,44.7600
2023-05-22T10:21:42.081Z,44.7480
2023-05-22T10:22:44.206Z,44.6870
2023-05-22T10:23:46.373Z,44.6800
2023-05-22T10:24:48.600Z,44.6800
2023-05-22T10:25:50.764Z,44.6920
2023-05-22T10:26:52.986Z,44.6740
2023-05-22T10:27:55.116Z,44.6600
2023-05-22T10:28:57.317Z,44.6240
2023-05-22T10:29:59.527Z,44.6320
2023-05-22T10:31:01.768Z,44.6320
2023-05-22T10:32:03.980Z,44.6690
2023-05-22T10:33:06.365Z,44.6760
2023-05-22T10:34:08.391Z,44.6760
2023-05-22T10:35:10.583Z,44.6870
2023-05-22T10:36:12.797Z,44.6570
2023-05-22T10:37:18.301Z,44.6520
2023-05-22T10:38:17.240Z,44.7220
2023-05-22T10:39:19.467Z,44.7500
2023-05-22T10:40:21.798Z,44.7680
2023-05-22T10:41:23.878Z,44.7550
2023-05-22T10:42:26.091Z,44.7550
2023-05-22T10:43:28.316Z,44.7610
2023-05-22T10:44:30.561Z,44.7680
2023-05-22T10:45:32.907Z,44.7370
2023-05-22T10:46:34.817Z,44.6760
2023-05-22T10:47:37.035Z,44.6850
2023-05-22T10:48:39.284Z,44.6240
2023-05-22T10:49:41.321Z,44.6040
2023-05-22T10:50:43.398Z,44.6100
2023-05-22T10:51:43.377Z,44.6100
2023-05-22T10:52:45.522Z,44.5980
2023-05-22T10:53:47.651Z,44.5920
2023-05-22T10:54:49.768Z,44.5920
2023-05-22T10:55:51.925Z,44.6240
2023-05-22T10:56:54.058Z,44.6170
2023-05-22T10:57:56.235Z,44.5560
2023-05-22T10:58:58.350Z,44.5860
2023-05-22T11:00:00.506Z,44.5680
2023-05-22T11:01:02.646Z,44.5500
2023-05-22T11:02:04.805Z,44.4740
2023-05-22T11:03:17.116Z,44.4620
2023-05-22T11:04:09.352Z,44.5240
2023-05-22T11:05:11.314Z,44.5620
2023-05-22T11:06:13.446Z,44.5920
2023-05-22T11:07:15.648Z,44.6170
2023-05-22T11:08:19.420Z,44.6100
2023-05-22T11:09:20.045Z,44.5680
2023-05-22T11:10:22.252Z,44.5400
2023-05-22T11:11:24.445Z,44.5080
2023-05-22T11:12:26.643Z,44.3600
2023-05-22T11:13:28.715Z,44.3780
2023-05-22T11:14:28.828Z,44.3240
2023-05-22T11:15:31.005Z,44.0950
2023-05-22T11:16:33.240Z,44.2190
2023-05-22T11:17:35.417Z,44.3240
2023-05-22T11:18:37.637Z,44.2570
2023-05-22T11:19:37.800Z,44.0600
2023-05-22T11:20:40.253Z,43.3590
2023-05-22T11:21:42.045Z,43.3590
2023-05-22T11:22:44.252Z,43.6720
2023-05-22T11:23:46.458Z,43.7870
2023-05-22T11:24:48.627Z,43.4680
2023-05-22T11:25:50.826Z,43.3830
2023-05-22T11:26:52.996Z,43.4380
2023-05-22T11:27:55.164Z,43.5110
2023-05-22T11:28:57.396Z,43.5670
2023-05-22T11:29:59.547Z,43.5890
2023-05-22T11:31:01.769Z,43.4480
2023-05-22T11:32:03.914Z,43.3250
2023-05-22T11:33:06.154Z,43.2640
2023-05-22T11:34:08.344Z,43.3270
2023-05-22T11:35:10.556Z,43.4870
2023-05-22T11:36:12.555Z,43.5330
2023-05-22T11:37:14.717Z,43.5270
2023-05-22T11:38:16.868Z,43.5750
2023-05-22T11:39:19.091Z,43.5610
2023-05-22T11:40:21.247Z,43.5410
2023-05-22T11:41:21.307Z,43.5050
2023-05-22T11:42:23.482Z,43.4490
2023-05-22T11:43:25.697Z,43.4260
2023-05-22T11:44:28.050Z,43.4550
2023-05-22T11:45:30.125Z,43.5540
2023-05-22T11:46:32.363Z,43.5260
2023-05-22T11:47:34.604Z,43.5070
2023-05-22T11:48:36.703Z,43.5220
2023-05-22T11:49:38.910Z,43.4920
2023-05-22T11:50:42.752Z,43.4490
2023-05-22T11:51:43.184Z,43.4070
2023-05-22T11:52:45.307Z,43.3600
2023-05-22T11:53:47.469Z,43.3220
2023-05-22T11:54:49.643Z,43.3460
2023-05-22T11:55:51.783Z,43.3680
2023-05-22T11:56:53.894Z,43.3620
2023-05-22T11:57:56.042Z,43.3710
2023-05-22T11:58:58.107Z,43.3770
2023-05-22T11:59:58.153Z,43.4170
2023-05-22T12:01:00.249Z,43.2820
2023-05-22T12:02:02.461Z,43.2700
2023-05-22T12:03:04.716Z,43.0740
2023-05-22T12:04:06.997Z,43.0350
2023-05-22T12:05:09.107Z,43.0920
2023-05-22T12:06:11.407Z,43.1220
2023-05-22T12:07:13.492Z,43.1590
2023-05-22T12:08:15.681Z,43.1430
2023-05-22T12:09:17.873Z,43.1810
2023-05-22T12:10:20.109Z,43.1490
2023-05-22T12:11:22.229Z,43.2200
2023-05-22T12:12:24.391Z,43.1650
2023-05-22T12:13:26.597Z,43.0920
2023-05-22T12:14:28.788Z,43.0980
2023-05-22T12:15:28.883Z,43.1100
2023-05-22T12:16:31.134Z,43.1150
2023-05-22T12:17:33.317Z,43.1410
2023-05-22T12:18:35.478Z,43.1310
2023-05-22T12:19:37.671Z,43.0930
2023-05-22T12:20:40.074Z,42.9280
2023-05-22T12:21:42.346Z,42.9770
2023-05-22T12:22:44.319Z,42.8540
2023-05-22T12:23:46.512Z,42.8370
2023-05-22T12:24:48.728Z,42.8390
2023-05-22T12:25:50.964Z,42.8130
2023-05-22T12:26:53.172Z,42.8700
2023-05-22T12:27:55.392Z,42.8760
2023-05-22T12:28:55.454Z,42.9310
2023-05-22T12:29:57.649Z,42.7080
2023-05-22T12:31:00.001Z,42.7210
2023-05-22T12:32:02.148Z,42.5260
2023-05-22T12:33:04.297Z,42.6140
2023-05-22T12:34:06.494Z,42.6140
2023-05-22T12:35:08.729Z,42.5280